sensor_id;sensor_type;location;lat;lon;timestamp;P1;durP1;ratioP1;P2;durP2;ratioP2
13374;SDS011;6756;51.354;15.754;2023-02-01T00:03:05;5.90;;;2.30;;
13374;SDS011;6756;51.354;15.754;2023-02-01T00:07:06;7.80;;;2.60;;
13374;SDS011;6756;51.354;15.754;2023-02-01T00:11:07;8.37;;;2.83;;
13374;SDS011;6756;51.354;15.754;2023-02-01T00:15:09;10.77;;;2.63;;
13374;SDS011;6756;51.354;15.754;2023-02-01T00:19:11;10.23;;;2.43;;
13374;SDS011;6756;51.354;15.754;2023-02-01T00:23:14;6.57;;;2.03;;
13374;SDS011;6756;51.354;15.754;2023-02-01T00:27:14;9.00;;;2.13;;
13374;SDS011;6756;51.354;15.754;2023-02-01T00:31:17;5.33;;;2.63;;
13374;SDS011;6756;51.354;15.754;2023-02-01T00:35:18;4.97;;;2.27;;
13374;SDS011;6756;51.354;15.754;2023-02-01T00:39:19;7.90;;;2.43;;
13374;SDS011;6756;51.354;15.754;2023-02-01T00:43:20;8.70;;;1.80;;
13374;SDS011;6756;51.354;15.754;2023-02-01T00:47:20;4.17;;;1.97;;
13374;SDS011;6756;51.354;15.754;2023-02-01T00:51:22;7.73;;;2.37;;
13374;SDS011;6756;51.354;15.754;2023-02-01T00:55:25;8.80;;;2.80;;
13374;SDS011;6756;51.354;15.754;2023-02-01T00:59:26;6.53;;;1.97;;
13374;SDS011;6756;51.354;15.754;2023-02-01T01:03:26;6.03;;;2.37;;
13374;SDS011;6756;51.354;15.754;2023-02-01T01:07:29;9.93;;;1.93;;
13374;SDS011;6756;51.354;15.754;2023-02-01T01:11:31;6.17;;;1.97;;
13374;SDS011;6756;51.354;15.754;2023-02-01T01:15:37;8.97;;;2.47;;
13374;SDS011;6756;51.354;15.754;2023-02-01T01:19:38;7.30;;;1.70;;
13374;SDS011;6756;51.354;15.754;2023-02-01T01:23:39;12.17;;;2.87;;
13374;SDS011;6756;51.354;15.754;2023-02-01T01:27:40;11.57;;;3.20;;
13374;SDS011;6756;51.354;15.754;2023-02-01T01:31:41;8.17;;;1.97;;
13374;SDS011;6756;51.354;15.754;2023-02-01T01:35:41;10.93;;;2.63;;
13374;SDS011;6756;51.354;15.754;2023-02-01T01:39:42;6.27;;;1.90;;
13374;SDS011;6756;51.354;15.754;2023-02-01T01:43:47;6.90;;;1.80;;
13374;SDS011;6756;51.354;15.754;2023-02-01T01:48:13;7.00;;;1.80;;
13374;SDS011;6756;51.354;15.754;2023-02-01T01:52:26;10.93;;;2.77;;
13374;SDS011;6756;51.354;15.754;2023-02-01T01:56:27;12.83;;;2.13;;
13374;SDS011;6756;51.354;15.754;2023-02-01T02:00:31;8.23;;;1.87;;
13374;SDS011;6756;51.354;15.754;2023-02-01T02:04:36;4.63;;;1.80;;
13374;SDS011;6756;51.354;15.754;2023-02-01T02:08:37;10.23;;;2.43;;
13374;SDS011;6756;51.354;15.754;2023-02-01T02:12:39;12.17;;;2.30;;
13374;SDS011;6756;51.354;15.754;2023-02-01T02:16:51;11.27;;;1.83;;
13374;SDS011;6756;51.354;15.754;2023-02-01T02:34:34;6.73;;;1.80;;
13374;SDS011;6756;51.354;15.754;2023-02-01T02:43:43;8.63;;;1.97;;
13374;SDS011;6756;51.354;15.754;2023-02-01T02:52:21;9.90;;;1.87;;
13374;SDS011;6756;51.354;15.754;2023-02-01T02:56:42;8.43;;;2.17;;
13374;SDS011;6756;51.354;15.754;2023-02-01T03:01:01;6.87;;;1.70;;
13374;SDS011;6756;51.354;15.754;2023-02-01T03:05:22;12.70;;;2.07;;
13374;SDS011;6756;51.354;15.754;2023-02-01T03:09:26;10.73;;;2.00;;
13374;SDS011;6756;51.354;15.754;2023-02-01T03:17:56;10.87;;;1.80;;
13374;SDS011;6756;51.354;15.754;2023-02-01T03:22:08;7.93;;;2.27;;
13374;SDS011;6756;51.354;15.754;2023-02-01T03:26:13;9.40;;;2.77;;
13374;SDS011;6756;51.354;15.754;2023-02-01T03:30:18;12.87;;;2.37;;
13374;SDS011;6756;51.354;15.754;2023-02-01T03:34:31;9.53;;;2.47;;
13374;SDS011;6756;51.354;15.754;2023-02-01T03:38:35;8.40;;;2.00;;
13374;SDS011;6756;51.354;15.754;2023-02-01T03:42:49;9.53;;;2.30;;
13374;SDS011;6756;51.354;15.754;2023-02-01T03:51:16;6.00;;;2.27;;
13374;SDS011;6756;51.354;15.754;2023-02-01T03:55:20;7.20;;;2.33;;
13374;SDS011;6756;51.354;15.754;2023-02-01T03:59:22;6.93;;;1.97;;
13374;SDS011;6756;51.354;15.754;2023-02-01T04:03:24;9.53;;;2.33;;
13374;SDS011;6756;51.354;15.754;2023-02-01T04:07:26;6.70;;;1.70;;
13374;SDS011;6756;51.354;15.754;2023-02-01T04:11:27;6.57;;;2.20;;
13374;SDS011;6756;51.354;15.754;2023-02-01T04:15:29;10.97;;;2.10;;
13374;SDS011;6756;51.354;15.754;2023-02-01T04:19:29;9.00;;;2.30;;
13374;SDS011;6756;51.354;15.754;2023-02-01T04:23:30;8.47;;;2.30;;
13374;SDS011;6756;51.354;15.754;2023-02-01T04:27:34;6.03;;;1.90;;
13374;SDS011;6756;51.354;15.754;2023-02-01T04:31:35;10.33;;;2.53;;
13374;SDS011;6756;51.354;15.754;2023-02-01T04:35:36;4.43;;;2.03;;
13374;SDS011;6756;51.354;15.754;2023-02-01T04:39:37;11.60;;;2.10;;
13374;SDS011;6756;51.354;15.754;2023-02-01T04:43:38;8.17;;;2.40;;
13374;SDS011;6756;51.354;15.754;2023-02-01T04:47:38;9.70;;;2.67;;
13374;SDS011;6756;51.354;15.754;2023-02-01T04:51:40;5.60;;;1.87;;
13374;SDS011;6756;51.354;15.754;2023-02-01T04:55:41;8.73;;;1.80;;
13374;SDS011;6756;51.354;15.754;2023-02-01T04:59:42;10.70;;;2.10;;
13374;SDS011;6756;51.354;15.754;2023-02-01T05:03:43;10.43;;;2.07;;
13374;SDS011;6756;51.354;15.754;2023-02-01T05:07:45;7.07;;;2.00;;
13374;SDS011;6756;51.354;15.754;2023-02-01T05:11:46;7.90;;;2.27;;
13374;SDS011;6756;51.354;15.754;2023-02-01T05:16:06;10.80;;;2.00;;
13374;SDS011;6756;51.354;15.754;2023-02-01T05:20:07;5.70;;;2.43;;
13374;SDS011;6756;51.354;15.754;2023-02-01T05:24:09;7.13;;;2.03;;
13374;SDS011;6756;51.354;15.754;2023-02-01T05:28:10;8.43;;;2.17;;
13374;SDS011;6756;51.354;15.754;2023-02-01T05:32:10;10.70;;;2.37;;
13374;SDS011;6756;51.354;15.754;2023-02-01T05:36:11;4.83;;;1.93;;
13374;SDS011;6756;51.354;15.754;2023-02-01T05:40:12;7.20;;;2.57;;
13374;SDS011;6756;51.354;15.754;2023-02-01T05:44:13;10.73;;;2.07;;
13374;SDS011;6756;51.354;15.754;2023-02-01T05:48:14;6.97;;;2.07;;
13374;SDS011;6756;51.354;15.754;2023-02-01T05:52:15;8.03;;;1.90;;
13374;SDS011;6756;51.354;15.754;2023-02-01T05:56:19;6.77;;;1.70;;
13374;SDS011;6756;51.354;15.754;2023-02-01T06:00:20;9.50;;;2.10;;
13374;SDS011;6756;51.354;15.754;2023-02-01T06:04:21;14.87;;;2.50;;
13374;SDS011;6756;51.354;15.754;2023-02-01T06:08:22;9.30;;;2.17;;
13374;SDS011;6756;51.354;15.754;2023-02-01T06:12:25;8.83;;;1.80;;
13374;SDS011;6756;51.354;15.754;2023-02-01T06:16:28;11.23;;;2.10;;
13374;SDS011;6756;51.354;15.754;2023-02-01T06:20:28;7.50;;;2.17;;
13374;SDS011;6756;51.354;15.754;2023-02-01T06:24:29;9.70;;;2.47;;
13374;SDS011;6756;51.354;15.754;2023-02-01T06:28:30;9.07;;;2.07;;
13374;SDS011;6756;51.354;15.754;2023-02-01T06:32:32;5.77;;;1.83;;
13374;SDS011;6756;51.354;15.754;2023-02-01T06:36:33;11.37;;;2.17;;
13374;SDS011;6756;51.354;15.754;2023-02-01T06:40:34;11.37;;;2.03;;
13374;SDS011;6756;51.354;15.754;2023-02-01T06:44:35;11.77;;;2.53;;
13374;SDS011;6756;51.354;15.754;2023-02-01T06:48:36;8.43;;;2.20;;
13374;SDS011;6756;51.354;15.754;2023-02-01T06:52:37;6.43;;;2.10;;
13374;SDS011;6756;51.354;15.754;2023-02-01T06:56:37;5.47;;;2.30;;
13374;SDS011;6756;51.354;15.754;2023-02-01T07:00:38;7.90;;;2.27;;
13374;SDS011;6756;51.354;15.754;2023-02-01T07:04:39;7.20;;;1.97;;
13374;SDS011;6756;51.354;15.754;2023-02-01T07:08:40;10.17;;;2.50;;
13374;SDS011;6756;51.354;15.754;2023-02-01T07:12:43;10.97;;;2.70;;
13374;SDS011;6756;51.354;15.754;2023-02-01T07:16:44;10.80;;;2.53;;
13374;SDS011;6756;51.354;15.754;2023-02-01T07:20:50;7.93;;;2.20;;
13374;SDS011;6756;51.354;15.754;2023-02-01T07:24:51;10.10;;;2.60;;
13374;SDS011;6756;51.354;15.754;2023-02-01T07:28:52;7.87;;;2.00;;
13374;SDS011;6756;51.354;15.754;2023-02-01T07:32:53;14.50;;;2.83;;
13374;SDS011;6756;51.354;15.754;2023-02-01T07:36:54;5.90;;;2.47;;
13374;SDS011;6756;51.354;15.754;2023-02-01T07:40:58;9.23;;;2.20;;
13374;SDS011;6756;51.354;15.754;2023-02-01T07:45:00;9.93;;;3.07;;
13374;SDS011;6756;51.354;15.754;2023-02-01T07:49:02;9.10;;;2.57;;
13374;SDS011;6756;51.354;15.754;2023-02-01T07:53:03;6.03;;;2.37;;
13374;SDS011;6756;51.354;15.754;2023-02-01T07:57:04;9.37;;;2.50;;
13374;SDS011;6756;51.354;15.754;2023-02-01T08:01:04;10.07;;;2.43;;
13374;SDS011;6756;51.354;15.754;2023-02-01T08:05:20;7.57;;;2.67;;
13374;SDS011;6756;51.354;15.754;2023-02-01T08:09:21;12.50;;;2.47;;
13374;SDS011;6756;51.354;15.754;2023-02-01T08:13:21;7.10;;;2.50;;
13374;SDS011;6756;51.354;15.754;2023-02-01T08:17:23;10.90;;;2.57;;
13374;SDS011;6756;51.354;15.754;2023-02-01T08:21:25;8.57;;;2.43;;
13374;SDS011;6756;51.354;15.754;2023-02-01T08:25:36;12.93;;;3.00;;
13374;SDS011;6756;51.354;15.754;2023-02-01T08:29:36;9.07;;;2.50;;
13374;SDS011;6756;51.354;15.754;2023-02-01T08:33:37;9.10;;;2.90;;
13374;SDS011;6756;51.354;15.754;2023-02-01T08:37:38;9.63;;;2.60;;
13374;SDS011;6756;51.354;15.754;2023-02-01T08:41:39;10.43;;;3.37;;
13374;SDS011;6756;51.354;15.754;2023-02-01T08:45:42;8.73;;;2.73;;
13374;SDS011;6756;51.354;15.754;2023-02-01T08:49:42;9.03;;;2.60;;
13374;SDS011;6756;51.354;15.754;2023-02-01T08:53:44;7.80;;;2.97;;
13374;SDS011;6756;51.354;15.754;2023-02-01T08:57:45;8.60;;;3.00;;
13374;SDS011;6756;51.354;15.754;2023-02-01T09:01:46;9.20;;;2.97;;
13374;SDS011;6756;51.354;15.754;2023-02-01T09:05:47;10.07;;;2.77;;
13374;SDS011;6756;51.354;15.754;2023-02-01T09:09:48;7.70;;;2.57;;
13374;SDS011;6756;51.354;15.754;2023-02-01T09:13:48;8.87;;;2.90;;
13374;SDS011;6756;51.354;15.754;2023-02-01T09:17:49;11.60;;;2.87;;
13374;SDS011;6756;51.354;15.754;2023-02-01T09:21:50;6.33;;;2.83;;
13374;SDS011;6756;51.354;15.754;2023-02-01T09:25:51;11.00;;;2.90;;
13374;SDS011;6756;51.354;15.754;2023-02-01T09:29:52;11.47;;;3.10;;
13374;SDS011;6756;51.354;15.754;2023-02-01T09:33:52;10.70;;;3.03;;
13374;SDS011;6756;51.354;15.754;2023-02-01T09:37:53;9.30;;;2.70;;
13374;SDS011;6756;51.354;15.754;2023-02-01T09:50:33;9.47;;;3.30;;
13374;SDS011;6756;51.354;15.754;2023-02-01T09:55:16;6.73;;;3.30;;
13374;SDS011;6756;51.354;15.754;2023-02-01T09:59:32;9.83;;;3.37;;
13374;SDS011;6756;51.354;15.754;2023-02-01T10:03:44;9.13;;;3.33;;
13374;SDS011;6756;51.354;15.754;2023-02-01T10:12:15;9.90;;;3.50;;
13374;SDS011;6756;51.354;15.754;2023-02-01T10:16:47;9.77;;;3.63;;
13374;SDS011;6756;51.354;15.754;2023-02-01T10:21:23;7.10;;;2.80;;
13374;SDS011;6756;51.354;15.754;2023-02-01T10:25:42;7.23;;;2.50;;
13374;SDS011;6756;51.354;15.754;2023-02-01T10:30:16;8.73;;;3.50;;
13374;SDS011;6756;51.354;15.754;2023-02-01T10:34:27;6.97;;;2.97;;
13374;SDS011;6756;51.354;15.754;2023-02-01T10:38:32;9.83;;;2.80;;
13374;SDS011;6756;51.354;15.754;2023-02-01T10:42:33;7.63;;;3.30;;
13374;SDS011;6756;51.354;15.754;2023-02-01T10:46:34;9.30;;;2.73;;
13374;SDS011;6756;51.354;15.754;2023-02-01T10:54:37;7.33;;;2.77;;
13374;SDS011;6756;51.354;15.754;2023-02-01T10:58:43;8.37;;;2.70;;
13374;SDS011;6756;51.354;15.754;2023-02-01T11:02:46;8.80;;;2.60;;
13374;SDS011;6756;51.354;15.754;2023-02-01T11:06:54;7.90;;;2.97;;
13374;SDS011;6756;51.354;15.754;2023-02-01T11:11:12;7.07;;;2.50;;
13374;SDS011;6756;51.354;15.754;2023-02-01T11:15:17;5.10;;;2.90;;
13374;SDS011;6756;51.354;15.754;2023-02-01T11:19:21;3.97;;;2.10;;
13374;SDS011;6756;51.354;15.754;2023-02-01T11:23:23;6.20;;;2.27;;
13374;SDS011;6756;51.354;15.754;2023-02-01T11:27:25;6.10;;;2.47;;
13374;SDS011;6756;51.354;15.754;2023-02-01T11:31:27;7.23;;;2.23;;
13374;SDS011;6756;51.354;15.754;2023-02-01T11:35:29;3.23;;;2.00;;
13374;SDS011;6756;51.354;15.754;2023-02-01T11:39:31;5.40;;;2.27;;
13374;SDS011;6756;51.354;15.754;2023-02-01T11:43:34;3.37;;;1.87;;
13374;SDS011;6756;51.354;15.754;2023-02-01T11:47:39;3.80;;;1.70;;
13374;SDS011;6756;51.354;15.754;2023-02-01T11:52:03;2.93;;;1.47;;
13374;SDS011;6756;51.354;15.754;2023-02-01T12:00:50;6.10;;;1.93;;
13374;SDS011;6756;51.354;15.754;2023-02-01T12:17:58;3.83;;;1.87;;
13374;SDS011;6756;51.354;15.754;2023-02-01T12:22:25;3.87;;;1.70;;
13374;SDS011;6756;51.354;15.754;2023-02-01T12:35:05;2.03;;;1.20;;
13374;SDS011;6756;51.354;15.754;2023-02-01T12:39:32;3.43;;;1.13;;
13374;SDS011;6756;51.354;15.754;2023-02-01T12:43:57;2.27;;;1.10;;
13374;SDS011;6756;51.354;15.754;2023-02-01T12:52:15;2.37;;;1.07;;
13374;SDS011;6756;51.354;15.754;2023-02-01T12:56:25;2.50;;;1.10;;
13374;SDS011;6756;51.354;15.754;2023-02-01T13:04:38;3.70;;;1.73;;
13374;SDS011;6756;51.354;15.754;2023-02-01T13:17:23;5.10;;;1.70;;
13374;SDS011;6756;51.354;15.754;2023-02-01T13:21:26;3.13;;;1.20;;
13374;SDS011;6756;51.354;15.754;2023-02-01T13:38:38;4.10;;;1.67;;
13374;SDS011;6756;51.354;15.754;2023-02-01T13:43:14;5.13;;;1.47;;
13374;SDS011;6756;51.354;15.754;2023-02-01T13:47:30;4.43;;;1.50;;
13374;SDS011;6756;51.354;15.754;2023-02-01T13:51:35;3.60;;;1.10;;
13374;SDS011;6756;51.354;15.754;2023-02-01T13:55:37;4.10;;;1.60;;
13374;SDS011;6756;51.354;15.754;2023-02-01T14:03:45;3.93;;;1.63;;
13374;SDS011;6756;51.354;15.754;2023-02-01T14:16:39;3.47;;;1.20;;
13374;SDS011;6756;51.354;15.754;2023-02-01T14:20:44;3.30;;;1.67;;
13374;SDS011;6756;51.354;15.754;2023-02-01T14:24:56;4.63;;;1.40;;
13374;SDS011;6756;51.354;15.754;2023-02-01T14:29:02;2.90;;;1.87;;
13374;SDS011;6756;51.354;15.754;2023-02-01T14:33:23;1.70;;;1.13;;
13374;SDS011;6756;51.354;15.754;2023-02-01T14:37:28;4.07;;;1.80;;
13374;SDS011;6756;51.354;15.754;2023-02-01T14:41:32;5.60;;;1.60;;
13374;SDS011;6756;51.354;15.754;2023-02-01T14:49:53;5.27;;;1.77;;
13374;SDS011;6756;51.354;15.754;2023-02-01T14:54:03;2.73;;;1.50;;
13374;SDS011;6756;51.354;15.754;2023-02-01T14:58:06;5.00;;;1.60;;
13374;SDS011;6756;51.354;15.754;2023-02-01T15:02:24;2.47;;;1.50;;
13374;SDS011;6756;51.354;15.754;2023-02-01T15:10:27;4.80;;;1.30;;
13374;SDS011;6756;51.354;15.754;2023-02-01T15:14:36;4.07;;;1.50;;
13374;SDS011;6756;51.354;15.754;2023-02-01T15:18:42;3.27;;;2.20;;
13374;SDS011;6756;51.354;15.754;2023-02-01T15:23:05;3.43;;;1.60;;
13374;SDS011;6756;51.354;15.754;2023-02-01T15:27:14;4.50;;;1.87;;
13374;SDS011;6756;51.354;15.754;2023-02-01T15:31:30;2.83;;;1.40;;
13374;SDS011;6756;51.354;15.754;2023-02-01T15:48:33;2.47;;;1.70;;
13374;SDS011;6756;51.354;15.754;2023-02-01T15:52:39;5.63;;;1.80;;
13374;SDS011;6756;51.354;15.754;2023-02-01T15:56:41;3.47;;;1.80;;
13374;SDS011;6756;51.354;15.754;2023-02-01T16:00:53;4.97;;;1.90;;
13374;SDS011;6756;51.354;15.754;2023-02-01T16:04:56;6.00;;;1.80;;
13374;SDS011;6756;51.354;15.754;2023-02-01T16:12:58;7.37;;;2.70;;
13374;SDS011;6756;51.354;15.754;2023-02-01T16:17:00;4.57;;;2.67;;
13374;SDS011;6756;51.354;15.754;2023-02-01T16:21:01;4.93;;;2.30;;
13374;SDS011;6756;51.354;15.754;2023-02-01T16:25:02;6.77;;;2.63;;
13374;SDS011;6756;51.354;15.754;2023-02-01T16:29:03;4.17;;;2.80;;
13374;SDS011;6756;51.354;15.754;2023-02-01T16:33:06;4.70;;;2.90;;
13374;SDS011;6756;51.354;15.754;2023-02-01T16:37:24;6.77;;;3.50;;
13374;SDS011;6756;51.354;15.754;2023-02-01T16:41:27;6.60;;;3.53;;
13374;SDS011;6756;51.354;15.754;2023-02-01T16:45:28;12.87;;;3.90;;
13374;SDS011;6756;51.354;15.754;2023-02-01T16:49:30;8.83;;;4.00;;
13374;SDS011;6756;51.354;15.754;2023-02-01T16:53:31;7.90;;;3.87;;
13374;SDS011;6756;51.354;15.754;2023-02-01T16:57:32;8.27;;;3.73;;
13374;SDS011;6756;51.354;15.754;2023-02-01T17:01:33;7.00;;;3.20;;
13374;SDS011;6756;51.354;15.754;2023-02-01T17:05:34;6.53;;;3.10;;
13374;SDS011;6756;51.354;15.754;2023-02-01T17:09:35;6.27;;;2.67;;
13374;SDS011;6756;51.354;15.754;2023-02-01T17:13:36;4.23;;;2.67;;
13374;SDS011;6756;51.354;15.754;2023-02-01T17:17:37;7.80;;;3.00;;
13374;SDS011;6756;51.354;15.754;2023-02-01T17:21:43;5.20;;;3.10;;
13374;SDS011;6756;51.354;15.754;2023-02-01T17:25:46;8.70;;;3.20;;
13374;SDS011;6756;51.354;15.754;2023-02-01T17:29:47;10.40;;;4.00;;
13374;SDS011;6756;51.354;15.754;2023-02-01T17:33:48;6.30;;;2.97;;
13374;SDS011;6756;51.354;15.754;2023-02-01T17:37:49;6.57;;;3.40;;
13374;SDS011;6756;51.354;15.754;2023-02-01T17:41:51;10.10;;;3.60;;
13374;SDS011;6756;51.354;15.754;2023-02-01T17:49:55;10.33;;;3.90;;
13374;SDS011;6756;51.354;15.754;2023-02-01T17:53:56;7.27;;;4.47;;
13374;SDS011;6756;51.354;15.754;2023-02-01T17:57:57;9.73;;;4.30;;
13374;SDS011;6756;51.354;15.754;2023-02-01T18:01:58;9.13;;;4.73;;
13374;SDS011;6756;51.354;15.754;2023-02-01T18:06:00;7.83;;;4.00;;
13374;SDS011;6756;51.354;15.754;2023-02-01T18:10:02;6.50;;;3.90;;
13374;SDS011;6756;51.354;15.754;2023-02-01T18:14:03;6.93;;;4.13;;
13374;SDS011;6756;51.354;15.754;2023-02-01T18:18:05;8.80;;;4.03;;
13374;SDS011;6756;51.354;15.754;2023-02-01T18:22:08;5.73;;;3.70;;
13374;SDS011;6756;51.354;15.754;2023-02-01T18:26:15;5.30;;;3.67;;
13374;SDS011;6756;51.354;15.754;2023-02-01T18:30:21;7.00;;;3.83;;
13374;SDS011;6756;51.354;15.754;2023-02-01T18:34:24;6.10;;;4.83;;
13374;SDS011;6756;51.354;15.754;2023-02-01T18:38:26;7.03;;;3.63;;
13374;SDS011;6756;51.354;15.754;2023-02-01T18:42:27;7.47;;;3.80;;
13374;SDS011;6756;51.354;15.754;2023-02-01T18:46:27;5.70;;;2.87;;
13374;SDS011;6756;51.354;15.754;2023-02-01T18:50:29;10.83;;;3.13;;
13374;SDS011;6756;51.354;15.754;2023-02-01T18:54:31;4.13;;;2.27;;
13374;SDS011;6756;51.354;15.754;2023-02-01T18:58:32;4.70;;;2.87;;
13374;SDS011;6756;51.354;15.754;2023-02-01T19:02:33;5.83;;;3.33;;
13374;SDS011;6756;51.354;15.754;2023-02-01T19:06:33;2.90;;;1.70;;
13374;SDS011;6756;51.354;15.754;2023-02-01T19:10:34;3.17;;;1.20;;
13374;SDS011;6756;51.354;15.754;2023-02-01T19:14:37;4.13;;;1.70;;
13374;SDS011;6756;51.354;15.754;2023-02-01T19:18:38;2.13;;;1.60;;
13374;SDS011;6756;51.354;15.754;2023-02-01T19:22:39;1.87;;;1.50;;
13374;SDS011;6756;51.354;15.754;2023-02-01T19:26:40;4.37;;;1.37;;
13374;SDS011;6756;51.354;15.754;2023-02-01T19:30:41;1.63;;;1.40;;
13374;SDS011;6756;51.354;15.754;2023-02-01T19:34:43;3.87;;;1.60;;
13374;SDS011;6756;51.354;15.754;2023-02-01T19:38:44;2.03;;;1.70;;
13374;SDS011;6756;51.354;15.754;2023-02-01T19:42:46;3.57;;;1.80;;
13374;SDS011;6756;51.354;15.754;2023-02-01T19:46:48;4.27;;;1.50;;
13374;SDS011;6756;51.354;15.754;2023-02-01T19:50:49;2.73;;;1.70;;
13374;SDS011;6756;51.354;15.754;2023-02-01T19:54:50;5.27;;;1.63;;
13374;SDS011;6756;51.354;15.754;2023-02-01T19:58:51;5.53;;;1.77;;
13374;SDS011;6756;51.354;15.754;2023-02-01T20:02:52;4.20;;;1.93;;
13374;SDS011;6756;51.354;15.754;2023-02-01T20:06:53;3.60;;;1.47;;
13374;SDS011;6756;51.354;15.754;2023-02-01T20:10:55;3.40;;;1.97;;
13374;SDS011;6756;51.354;15.754;2023-02-01T20:14:58;4.13;;;1.70;;
13374;SDS011;6756;51.354;15.754;2023-02-01T20:18:59;3.60;;;1.70;;
13374;SDS011;6756;51.354;15.754;2023-02-01T20:23:00;5.17;;;1.60;;
13374;SDS011;6756;51.354;15.754;2023-02-01T20:27:02;3.20;;;1.73;;
13374;SDS011;6756;51.354;15.754;2023-02-01T20:31:03;2.27;;;1.50;;
13374;SDS011;6756;51.354;15.754;2023-02-01T20:35:05;8.43;;;2.13;;
13374;SDS011;6756;51.354;15.754;2023-02-01T20:39:07;2.93;;;1.80;;
13374;SDS011;6756;51.354;15.754;2023-02-01T20:43:09;3.17;;;1.50;;
13374;SDS011;6756;51.354;15.754;2023-02-01T20:47:10;3.00;;;1.60;;
13374;SDS011;6756;51.354;15.754;2023-02-01T20:51:12;2.63;;;1.80;;
13374;SDS011;6756;51.354;15.754;2023-02-01T20:55:14;5.60;;;1.83;;
13374;SDS011;6756;51.354;15.754;2023-02-01T20:59:15;4.43;;;1.30;;
13374;SDS011;6756;51.354;15.754;2023-02-01T21:03:16;2.67;;;1.60;;
13374;SDS011;6756;51.354;15.754;2023-02-01T21:07:17;2.77;;;1.40;;
13374;SDS011;6756;51.354;15.754;2023-02-01T21:11:17;3.03;;;1.10;;
13374;SDS011;6756;51.354;15.754;2023-02-01T21:15:18;3.73;;;1.37;;
13374;SDS011;6756;51.354;15.754;2023-02-01T21:19:20;4.40;;;1.67;;
13374;SDS011;6756;51.354;15.754;2023-02-01T21:23:23;2.90;;;1.23;;
13374;SDS011;6756;51.354;15.754;2023-02-01T21:27:24;5.20;;;1.97;;
13374;SDS011;6756;51.354;15.754;2023-02-01T21:31:25;4.53;;;1.83;;
13374;SDS011;6756;51.354;15.754;2023-02-01T21:35:26;5.80;;;2.00;;
13374;SDS011;6756;51.354;15.754;2023-02-01T21:39:28;4.43;;;2.00;;
13374;SDS011;6756;51.354;15.754;2023-02-01T21:43:28;6.07;;;1.80;;
13374;SDS011;6756;51.354;15.754;2023-02-01T21:47:29;5.47;;;1.67;;
13374;SDS011;6756;51.354;15.754;2023-02-01T21:51:30;3.63;;;1.97;;
13374;SDS011;6756;51.354;15.754;2023-02-01T21:55:33;5.27;;;2.10;;
13374;SDS011;6756;51.354;15.754;2023-02-01T21:59:34;7.60;;;2.20;;
13374;SDS011;6756;51.354;15.754;2023-02-01T22:03:35;6.73;;;1.97;;
13374;SDS011;6756;51.354;15.754;2023-02-01T22:07:36;8.87;;;2.47;;
13374;SDS011;6756;51.354;15.754;2023-02-01T22:11:37;6.23;;;2.13;;
13374;SDS011;6756;51.354;15.754;2023-02-01T22:15:38;8.03;;;2.23;;
13374;SDS011;6756;51.354;15.754;2023-02-01T22:19:38;8.43;;;2.20;;
13374;SDS011;6756;51.354;15.754;2023-02-01T22:23:40;6.53;;;2.10;;
13374;SDS011;6756;51.354;15.754;2023-02-01T22:27:41;9.30;;;2.23;;
13374;SDS011;6756;51.354;15.754;2023-02-01T22:31:42;7.93;;;2.43;;
13374;SDS011;6756;51.354;15.754;2023-02-01T22:35:46;9.70;;;2.70;;
13374;SDS011;6756;51.354;15.754;2023-02-01T22:39:50;8.23;;;2.50;;
13374;SDS011;6756;51.354;15.754;2023-02-01T22:43:51;3.80;;;2.17;;
13374;SDS011;6756;51.354;15.754;2023-02-01T22:47:52;5.47;;;2.03;;
13374;SDS011;6756;51.354;15.754;2023-02-01T22:51:52;7.73;;;2.27;;
13374;SDS011;6756;51.354;15.754;2023-02-01T22:55:58;2.83;;;1.70;;
13374;SDS011;6756;51.354;15.754;2023-02-01T23:00:04;10.93;;;2.33;;
13374;SDS011;6756;51.354;15.754;2023-02-01T23:04:06;7.60;;;1.80;;
13374;SDS011;6756;51.354;15.754;2023-02-01T23:08:10;5.83;;;2.40;;
13374;SDS011;6756;51.354;15.754;2023-02-01T23:12:11;8.97;;;2.20;;
13374;SDS011;6756;51.354;15.754;2023-02-01T23:16:12;4.70;;;2.13;;
13374;SDS011;6756;51.354;15.754;2023-02-01T23:20:14;6.87;;;1.70;;
13374;SDS011;6756;51.354;15.754;2023-02-01T23:24:16;5.00;;;1.50;;
13374;SDS011;6756;51.354;15.754;2023-02-01T23:28:17;6.40;;;2.10;;
13374;SDS011;6756;51.354;15.754;2023-02-01T23:32:18;9.27;;;2.17;;
13374;SDS011;6756;51.354;15.754;2023-02-01T23:36:20;6.87;;;2.13;;
13374;SDS011;6756;51.354;15.754;2023-02-01T23:40:22;6.67;;;2.00;;
13374;SDS011;6756;51.354;15.754;2023-02-01T23:44:22;9.13;;;2.33;;
13374;SDS011;6756;51.354;15.754;2023-02-01T23:48:23;4.33;;;1.63;;
13374;SDS011;6756;51.354;15.754;2023-02-01T23:52:26;8.63;;;2.03;;
13374;SDS011;6756;51.354;15.754;2023-02-01T23:56:28;6.37;;;1.90;;
